Date,TemperatureHighF,TemperatureAvgF,TemperatureLowF,DewpointHighF,DewpointAvgF,DewpointLowF,HumidityHigh,HumidityAvg,HumidityLow,PressureMaxIn,PressureMinIn,WindSpeedMaxMPH,WindSpeedAvgMPH,GustSpeedMaxMPH,PrecipitationSumIn
2013-1-1,47.0,44.8,43.0,43.0,36.3,27.0,97,74,48,0.00,40.00,6,2,11,0.54
2013-1-2,44.0,41.0,38.0,43.0,38.6,34.0,98,90,68,0.00,40.00,5,2,8,0.87
2013-1-3,41.0,36.1,29.0,37.0,33.7,29.0,99,88,74,0.00,40.00,4,1,5,0.01
2013-1-4,48.0,37.0,29.0,30.0,22.0,16.0,99,59,30,0.00,40.00,11,4,18,0.00
2013-1-5,52.0,38.2,30.0,31.0,23.0,19.0,76,56,27,0.00,40.00,6,2,11,0.00
2013-1-6,53.0,42.1,38.0,37.0,34.2,30.0,86,69,47,0.00,40.00,5,2,7,0.02
2013-1-7,52.0,39.3,30.0,34.0,30.3,27.0,96,73,38,0.00,40.00,5,1,8,0.01
2013-1-8,51.0,36.9,27.0,37.0,32.5,27.0,98,85,54,0.00,40.00,2,1,5,0.00
2013-1-9,69.0,49.5,34.0,51.0,42.8,33.0,98,80,52,0.00,40.00,10,2,17,0.00
2013-1-10,60.0,47.8,40.0,46.0,39.3,31.0,98,76,35,0.00,40.00,4,1,6,0.00
2013-1-11,45.0,43.0,39.0,44.0,40.4,34.0,98,91,70,0.00,40.00,5,1,6,0.43
2013-1-12,67.0,54.9,45.0,60.0,52.9,44.0,98,93,73,0.00,40.00,2,1,4,0.01
2013-1-13,74.0,61.5,54.0,61.0,56.8,54.0,98,86,59,0.00,40.00,9,2,13,0.00
2013-1-14,65.0,60.1,47.0,61.0,57.5,46.0,97,91,80,0.00,40.00,6,2,11,1.46
2013-1-15,46.0,42.5,40.0,46.0,41.9,40.0,98,98,97,0.00,40.00,8,3,12,0.56
2013-1-16,48.0,43.4,39.0,47.0,40.7,-99.9,99,96,7,0.00,40.00,8,2,11,0.37
2013-1-17,49.0,41.8,33.0,48.0,41.1,33.0,100,98,97,0.00,40.00,16,5,21,3.59
2013-1-18,44.0,35.8,29.0,34.0,28.5,17.0,100,78,34,0.00,40.00,7,3,12,1.25
2013-1-19,54.0,37.5,28.0,31.0,26.8,23.0,97,70,30,0.00,40.00,9,2,13,0.00
2013-1-20,60.0,46.3,33.0,32.0,28.4,25.0,89,53,28,0.00,40.00,13,4,18,0.00
2013-1-21,58.0,42.1,29.0,36.0,26.0,11.0,98,61,24,0.00,40.00,11,4,19,0.00
2013-1-22,42.0,31.4,25.0,13.0,2.2,-7.0,38,29,18,0.00,40.00,13,7,19,0.00
2013-1-23,38.0,29.6,23.0,20.0,5.9,-6.0,68,38,16,0.00,40.00,11,5,17,0.00
2013-1-24,34.0,29.7,23.0,21.0,11.7,-2.0,71,48,24,0.00,40.00,12,5,20,0.00
2013-1-25,27.0,22.8,18.0,24.0,12.9,2.0,95,68,37,0.00,40.00,6,2,9,0.50
2013-1-26,35.0,26.9,20.0,29.0,24.8,19.0,98,92,78,0.00,40.00,4,1,6,0.03
2013-1-27,42.0,30.2,22.0,27.0,24.3,21.0,99,78,50,0.00,40.00,3,1,6,0.00
2013-1-28,53.0,40.8,31.0,45.0,32.5,-99.9,94,73,55,0.00,40.00,8,3,14,0.13
2013-1-29,74.0,57.2,47.0,54.0,47.6,45.0,91,73,39,0.00,40.00,6,3,13,0.01
2013-1-30,71.0,66.7,59.0,62.0,59.5,54.0,86,78,67,0.00,40.00,13,7,26,0.27
2013-1-31,67.0,44.4,33.0,62.0,22.1,15.0,92,42,29,0.00,40.00,16,9,27,0.61
2013-2-1,40.0,32.6,27.0,31.0,10.9,1.0,80,41,25,0.00,40.00,17,8,28,0.01
2013-2-2,39.0,30.8,19.0,22.0,10.1,6.0,77,44,25,0.00,40.00,8,3,12,0.00
2013-2-3,46.0,38.4,32.0,31.0,24.9,16.0,88,61,35,0.00,40.00,10,4,17,0.01
2013-2-4,45.0,37.0,27.0,24.0,18.5,14.0,74,48,31,0.00,40.00,9,3,13,0.01
2013-2-5,58.0,46.4,39.0,36.0,29.7,24.0,87,54,34,0.00,40.00,10,4,16,0.00
2013-2-6,57.0,43.6,33.0,36.0,29.8,22.0,94,63,26,0.00,40.00,10,3,12,0.00
2013-2-7,49.0,40.1,33.0,41.0,34.0,28.0,98,80,53,0.00,40.00,7,3,10,1.43
2013-2-8,55.0,43.2,37.0,42.0,36.4,25.0,99,80,46,0.00,40.00,13,7,22,2.95
2013-2-9,50.0,39.4,29.0,27.0,19.8,11.0,83,48,21,0.00,40.00,12,5,22,0.01
2013-2-10,51.0,38.4,26.0,35.0,22.7,17.0,90,57,26,0.00,40.00,4,1,7,0.05
2013-2-11,61.0,50.8,41.0,59.0,48.3,35.0,97,91,78,0.00,40.00,11,3,15,0.27
2013-2-12,59.0,51.9,42.0,50.0,32.2,21.0,83,50,24,0.00,40.00,9,4,14,0.00
2013-2-13,52.0,45.1,42.0,44.0,42.2,29.0,97,90,41,0.00,40.00,9,2,15,0.54
2013-2-14,52.0,41.5,33.0,36.0,30.7,26.0,91,68,37,0.00,40.00,7,3,11,0.01
2013-2-15,62.0,44.1,30.0,39.0,31.2,24.0,99,68,24,0.00,40.00,9,3,15,0.00
2013-2-16,46.0,35.7,31.0,37.0,33.4,27.0,98,90,58,0.00,40.00,9,4,15,1.59
2013-2-17,34.0,29.0,23.0,28.0,11.8,2.0,91,51,25,0.00,40.00,15,8,22,1.22
2013-2-18,51.0,35.3,20.0,20.0,15.2,8.0,81,47,24,0.00,40.00,6,2,10,0.00
2013-2-19,49.0,41.9,35.0,46.0,34.6,20.0,94,76,48,0.00,40.00,11,5,17,0.01
2013-2-20,51.0,40.7,30.0,34.0,15.1,4.0,76,38,14,0.00,40.00,11,6,17,0.00
2013-2-21,50.0,39.5,28.0,28.0,17.7,13.0,66,42,23,0.00,40.00,10,-11,16,0.00
2013-2-22,42.0,37.6,33.0,35.0,25.7,17.0,96,64,43,0.00,40.00,6,2,9,0.59
2013-2-23,42.0,37.7,36.0,40.0,37.4,35.0,98,95,92,0.00,40.00,7,2,10,0.94
2013-2-24,60.0,47.7,39.0,42.0,33.0,20.0,98,64,21,0.00,40.00,9,4,15,0.17
2013-2-25,44.0,36.6,31.0,27.0,23.6,18.0,86,61,37,0.00,40.00,9,2,12,0.16
2013-2-26,53.0,41.6,31.0,52.0,38.5,26.0,97,89,72,0.00,40.00,6,3,13,1.30
2013-2-27,58.0,47.6,40.0,46.0,37.9,31.0,98,73,37,0.00,40.00,10,-9,17,0.32
2013-2-28,49.0,43.7,36.0,38.0,27.5,21.0,79,54,33,0.00,40.00,13,5,19,0.01
2013-3-1,45.0,39.9,34.0,29.0,26.4,22.0,75,59,47,0.00,40.00,9,4,15,0.00
2013-3-2,41.0,38.3,34.0,27.0,22.8,18.0,67,54,44,0.00,40.00,7,3,11,0.00
2013-3-3,45.0,36.1,29.0,19.0,17.0,14.0,64,46,30,0.00,40.00,11,6,19,0.00
2013-3-4,51.0,35.8,26.0,24.0,13.8,5.0,74,44,16,0.00,40.00,10,5,19,0.00
2013-3-5,53.0,40.5,30.0,42.0,31.0,20.0,97,72,29,0.00,40.00,6,2,11,0.86
2013-3-6,43.0,37.5,33.0,37.0,33.8,30.0,98,87,66,0.00,40.00,19,10,32,1.26
2013-3-7,49.0,40.9,33.0,31.0,28.7,25.0,89,63,43,0.00,40.00,11,5,18,0.21
2013-3-8,54.0,42.5,29.0,30.0,24.4,18.0,88,51,29,0.00,40.00,14,6,20,0.00
2013-3-9,62.0,45.3,31.0,32.0,26.3,18.0,85,52,19,0.00,40.00,6,2,10,0.00
2013-3-10,69.0,48.0,31.0,38.0,29.2,19.0,97,58,18,0.00,40.00,4,2,7,0.00
2013-3-11,69.0,54.0,39.0,50.0,40.8,27.0,90,63,39,0.00,40.00,8,2,14,0.00
2013-3-12,67.0,59.3,49.0,60.0,48.5,29.0,96,70,38,0.00,40.00,14,5,19,0.93
2013-3-13,53.0,44.7,33.0,31.0,25.7,15.0,88,50,30,0.00,40.00,14,6,22,0.00
2013-3-14,51.0,40.3,31.0,18.0,15.4,11.0,55,38,20,0.00,40.00,13,7,19,0.00
2013-3-15,62.0,47.2,30.0,32.0,23.8,13.0,75,42,27,0.00,40.00,13,5,20,0.00
2013-3-16,77.0,57.1,41.0,57.0,42.3,32.0,96,63,29,0.00,40.00,18,4,24,0.17
2013-3-17,53.0,44.7,38.0,52.0,41.8,37.0,97,90,79,0.00,40.00,9,5,13,0.01
2013-3-18,41.0,37.7,36.0,39.0,37.3,35.0,97,96,94,0.00,40.00,8,4,13,0.50
2013-3-19,66.0,49.4,36.0,42.0,28.3,3.0,98,59,13,0.00,40.00,15,6,23,0.24
2013-3-20,59.0,47.0,39.0,27.0,9.8,2.0,56,23,12,0.00,40.00,14,4,21,0.00
2013-3-21,48.0,38.8,31.0,31.0,17.3,6.0,96,44,23,0.00,40.00,13,7,19,0.00
2013-3-22,51.0,36.8,25.0,24.0,12.7,9.0,66,39,18,0.00,40.00,10,5,15,0.01
2013-3-23,58.0,42.5,31.0,35.0,25.4,15.0,83,55,24,0.00,40.00,7,2,9,0.00
2013-3-24,40.0,36.4,34.0,37.0,33.8,29.0,99,89,65,0.00,40.00,11,4,14,1.33
2013-3-25,47.0,38.6,33.0,36.0,30.0,22.0,100,75,38,0.00,40.00,14,5,22,0.19
2013-3-26,48.0,41.5,34.0,31.0,25.6,24.0,70,54,39,0.00,40.00,11,5,16,0.02
2013-3-27,50.0,41.2,33.0,26.0,22.7,17.0,73,50,27,0.00,40.00,13,6,19,0.00
2013-3-28,55.0,43.6,33.0,30.0,23.3,19.0,76,48,26,0.00,40.00,11,6,18,0.00
2013-3-29,61.0,46.2,33.0,35.0,26.6,18.0,80,51,20,0.00,40.00,7,3,11,0.00
2013-3-30,66.0,49.5,35.0,36.0,30.9,23.0,89,54,22,0.00,40.00,4,-5,6,0.00
2013-3-31,66.0,54.3,47.0,55.0,46.2,-99.9,97,79,61,0.00,40.00,11,3,15,0.80
2013-4-1,71.0,59.0,46.0,54.0,42.8,27.0,96,61,25,0.00,40.00,14,5,19,0.15
2013-4-2,58.0,47.8,36.0,32.0,23.8,14.0,77,42,18,0.00,40.00,11,5,16,0.00
2013-4-3,58.0,45.9,35.0,34.0,21.5,10.0,83,43,15,0.00,40.00,10,3,14,0.00
2013-4-4,51.0,41.6,36.0,39.0,26.2,18.0,98,59,31,0.00,40.00,10,5,13,1.46
2013-4-5,65.0,46.5,38.0,44.0,39.8,34.0,99,79,36,0.00,40.00,9,4,12,1.83
2013-4-6,65.0,51.3,38.0,41.0,30.7,15.0,92,52,15,0.00,40.00,9,2,13,0.00
2013-4-7,72.0,54.4,36.0,44.0,34.1,25.0,86,50,26,0.00,40.00,13,3,19,0.00
2013-4-8,80.0,65.0,51.0,54.0,48.3,41.0,91,56,29,0.00,40.00,12,4,18,0.00
2013-4-9,86.0,72.6,60.0,55.0,52.1,47.0,83,52,26,0.00,40.00,12,4,16,0.00
2013-4-10,89.0,75.5,63.0,56.0,53.9,50.0,76,50,27,0.00,40.00,10,4,15,0.00
2013-4-11,81.0,72.6,64.0,61.0,56.9,53.0,78,59,39,0.00,40.00,14,6,19,0.00
2013-4-12,83.0,73.3,65.0,66.0,59.3,37.0,95,66,29,0.00,40.00,11,5,19,0.47
2013-4-13,74.0,63.8,55.0,47.0,37.5,32.0,70,39,22,0.00,40.00,9,4,14,0.01
2013-4-14,82.0,64.1,47.0,49.0,40.9,33.0,83,48,19,0.00,40.00,4,2,6,0.00
2013-4-15,72.0,62.4,56.0,57.0,54.0,42.0,94,76,39,0.00,40.00,7,3,12,0.19
2013-4-16,76.0,64.8,58.0,61.0,57.6,56.0,92,78,55,0.00,40.00,4,2,7,0.00
2013-4-17,84.0,70.1,59.0,64.0,59.5,54.0,95,72,37,0.00,40.00,5,2,10,0.00
2013-4-18,81.0,70.8,63.0,64.0,58.3,53.0,91,67,39,0.00,40.00,9,2,16,0.00
2013-4-19,82.0,69.5,64.0,66.0,62.8,58.0,95,81,53,0.00,40.00,17,5,29,1.11
2013-4-20,65.0,55.7,46.0,63.0,35.8,26.0,95,51,24,0.00,40.00,11,5,18,1.12
2013-4-21,63.0,52.8,45.0,42.0,35.2,29.0,87,53,32,0.00,40.00,9,4,13,0.00
2013-4-22,63.0,49.8,38.0,44.0,38.5,35.0,91,67,42,0.00,40.00,9,5,14,0.00
2013-4-23,69.0,55.4,49.0,49.0,44.3,42.0,89,68,41,0.00,40.00,7,3,12,0.00
2013-4-24,76.0,62.2,48.0,54.0,47.1,-99.9,95,67,39,0.00,40.00,16,5,23,0.00
2013-4-25,70.0,60.4,51.0,55.0,42.4,34.0,84,54,28,0.00,40.00,10,4,18,0.00
2013-4-26,70.0,57.5,44.0,49.0,40.6,27.0,95,61,20,0.00,40.00,6,2,11,0.00
2013-4-27,76.0,62.4,52.0,52.0,43.5,35.0,88,53,27,0.00,40.00,7,2,10,0.00
2013-4-28,62.0,57.3,54.0,55.0,46.1,-99.9,90,68,50,0.00,40.00,3,1,8,0.33
2013-4-29,71.0,61.1,54.0,61.0,56.8,51.0,96,87,65,0.00,40.00,4,1,8,0.84
2013-4-30,66.0,60.5,58.0,57.0,55.6,54.0,96,83,68,0.00,40.00,7,3,10,0.00
2013-5-1,65.0,58.5,56.0,57.0,54.4,48.0,94,81,70,0.00,40.00,8,5,13,0.00
2013-5-2,68.0,58.6,55.0,55.0,52.0,46.0,92,78,60,0.00,40.00,5,-19,8,0.00
2013-5-3,71.0,57.4,47.0,53.0,47.9,42.0,96,73,37,0.00,40.00,7,3,13,0.00
2013-5-4,60.0,52.7,47.0,52.0,47.3,44.0,90,82,73,0.00,40.00,7,4,10,0.00
2013-5-5,60.0,53.8,46.0,54.0,48.3,42.0,91,81,72,0.00,40.00,10,5,13,0.00
2013-5-6,65.0,56.6,55.0,61.0,57.1,53.0,97,94,83,0.00,40.00,6,-20,11,1.53
2013-5-7,71.0,62.7,57.0,63.0,57.6,48.0,97,85,44,0.00,40.00,7,2,10,0.65
2013-5-8,65.0,58.3,53.0,60.0,55.3,52.0,96,90,69,0.00,40.00,4,1,9,0.16
2013-5-9,81.0,62.7,49.0,61.0,54.3,48.0,97,75,32,0.00,40.00,6,2,10,0.00
2013-5-10,85.0,70.1,57.0,61.0,55.2,-99.9,95,66,34,0.00,40.00,8,3,15,0.00
2013-5-11,80.0,73.2,65.0,64.0,60.0,57.0,92,65,46,0.00,40.00,10,6,15,0.03
2013-5-12,70.0,64.1,55.0,62.0,44.9,-99.9,94,56,24,0.00,40.00,11,-10,19,0.00
2013-5-13,65.0,55.0,43.0,43.0,35.5,25.0,90,52,24,0.00,40.00,7,3,12,0.00
2013-5-14,70.0,56.6,41.0,43.0,36.9,28.0,92,53,24,0.00,40.00,9,3,12,0.00
2013-5-15,88.0,70.7,55.0,60.0,51.0,42.0,64,51,33,0.00,40.00,10,5,15,0.00
2013-5-16,84.0,68.8,62.0,61.0,36.8,-99.9,91,57,35,0.00,40.00,10,4,16,0.00
2013-5-17,88.0,73.1,63.0,66.0,53.5,-99.9,89,64,36,0.00,40.00,4,1,10,0.11
2013-5-18,75.0,67.2,60.0,68.0,63.5,58.0,96,89,71,0.00,40.00,6,1,10,0.30
2013-5-19,74.0,66.9,63.0,71.0,65.1,62.0,96,94,83,0.00,40.00,6,1,13,0.94
2013-5-20,80.0,69.6,67.0,70.0,66.8,65.0,96,90,70,0.00,40.00,12,2,19,0.63
2013-5-21,87.0,73.8,66.0,69.0,67.6,65.0,97,83,53,0.00,40.00,6,2,9,0.02
2013-5-22,85.0,75.8,70.0,69.0,66.6,65.0,91,75,53,0.00,40.00,9,4,14,0.00
2013-5-23,81.0,71.9,65.0,69.0,66.0,62.0,96,83,53,0.00,40.00,9,3,15,0.37
2013-5-24,68.0,64.2,56.0,63.0,50.2,35.0,92,63,34,0.00,40.00,14,-8,23,0.12
2013-5-25,72.0,58.5,45.0,42.0,35.4,27.0,90,47,20,0.00,40.00,8,4,14,0.00
2013-5-26,76.0,59.9,47.0,54.0,43.7,36.0,85,58,26,0.00,40.00,6,2,9,0.00
2013-5-27,79.0,65.1,51.0,59.0,51.8,49.0,94,65,37,0.00,40.00,8,2,11,0.00
2013-5-28,85.0,71.6,61.0,64.0,59.7,52.0,88,67,46,0.00,40.00,10,3,16,0.00
2013-5-29,86.0,75.5,64.0,65.0,61.8,59.0,89,65,40,0.00,40.00,10,4,14,0.00
2013-5-30,88.0,75.0,65.0,65.0,62.8,60.0,90,68,41,0.00,40.00,9,3,13,0.00
2013-5-31,88.0,76.5,66.0,67.0,63.8,57.0,93,68,37,0.00,40.00,9,3,14,0.00
2013-6-1,89.0,78.2,68.0,67.0,63.8,58.0,91,65,36,0.00,40.00,10,4,15,0.00
2013-6-2,84.0,76.4,69.0,71.0,63.9,-99.9,94,70,50,0.00,40.00,12,5,18,0.09
2013-6-3,82.0,73.6,69.0,71.0,68.5,67.0,95,85,60,0.00,40.00,8,3,13,0.46
2013-6-4,83.0,72.8,65.0,69.0,60.7,54.0,95,69,41,0.00,40.00,8,2,12,0.18
2013-6-5,84.0,72.7,63.0,62.0,55.4,-99.9,87,61,36,0.00,40.00,4,2,8,0.00
2013-6-6,77.0,70.1,65.0,70.0,64.0,53.0,95,82,54,0.00,40.00,4,2,12,0.45
2013-6-7,72.0,69.7,68.0,71.0,68.4,67.0,97,96,93,0.00,40.00,10,4,15,2.75
2013-6-8,85.0,72.2,64.0,69.0,65.9,60.0,96,83,46,0.00,40.00,5,2,9,0.48
2013-6-9,89.0,76.9,67.0,72.0,67.9,65.0,96,76,46,0.00,40.00,7,2,11,0.00
2013-6-10,83.0,73.7,70.0,73.0,70.7,69.0,96,91,71,0.00,40.00,11,4,26,0.78
2013-6-11,84.0,75.8,69.0,69.0,65.1,60.0,94,72,45,0.00,40.00,10,-30,16,0.06
2013-6-12,90.0,79.1,67.0,73.0,66.9,62.0,91,68,48,0.00,40.00,9,4,13,0.00
2013-6-13,94.0,78.7,67.0,72.0,69.0,58.0,94,75,40,0.00,40.00,17,4,24,0.17
2013-6-14,82.0,71.3,63.0,65.0,56.7,50.0,88,63,35,0.00,40.00,11,4,17,0.00
2013-6-15,85.0,72.2,59.0,66.0,58.7,53.0,94,67,35,0.00,40.00,7,2,13,0.00
2013-6-16,87.0,76.9,67.0,70.0,64.2,60.0,88,66,47,0.00,40.00,11,5,17,0.00
2013-6-17,86.0,76.9,71.0,72.0,68.7,65.0,94,76,55,0.00,40.00,7,3,11,0.48
2013-6-18,83.0,74.1,68.0,72.0,69.0,66.0,96,84,63,0.00,40.00,8,4,15,0.56
2013-6-19,81.0,71.8,65.0,67.0,65.1,63.0,95,81,58,0.00,40.00,5,2,9,0.00
2013-6-20,84.0,71.8,64.0,65.0,61.1,55.0,94,72,44,0.00,40.00,3,2,7,0.00
2013-6-22,87.0,78.1,70.0,70.0,68.5,65.0,96,74,56,0.00,40.00,3,2,9,0.32
2013-6-23,89.0,77.2,69.0,72.0,69.5,65.0,96,79,50,0.00,40.00,6,2,9,0.18
2013-6-24,87.0,78.1,70.0,77.0,70.7,68.0,95,79,56,0.00,40.00,8,3,14,0.17
2013-6-25,92.0,80.7,71.0,73.0,69.4,66.0,91,71,44,0.00,40.00,6,4,10,0.00
2013-6-26,91.0,77.8,69.0,72.0,69.2,67.0,96,77,48,0.00,40.00,9,-5,13,0.32
2013-6-27,87.0,76.3,68.0,73.0,69.1,66.0,95,77,5,0.00,40.00,9,4,12,0.48
2013-6-28,91.0,77.5,71.0,72.0,69.8,66.0,96,80,46,0.00,40.00,9,5,13,0.13
2013-6-29,89.0,77.3,69.0,72.0,68.8,62.0,95,77,42,0.00,40.00,9,3,12,0.57
2013-6-30,87.0,75.4,70.0,74.0,71.4,69.0,95,86,63,0.00,40.00,8,2,12,0.33
2013-7-1,84.0,74.8,71.0,74.0,70.5,69.0,96,88,66,0.00,40.00,5,2,10,0.53
2013-7-2,77.0,73.8,72.0,73.0,71.1,70.0,95,91,86,0.00,40.00,6,2,9,0.64
2013-7-3,89.0,76.4,73.0,76.0,72.4,71.0,95,88,63,0.00,40.00,6,2,12,0.39
2013-7-4,90.0,80.2,72.0,73.0,71.1,66.0,95,76,47,0.00,40.00,7,2,10,0.20
2013-7-5,90.0,79.9,71.0,73.0,70.6,69.0,94,75,51,0.00,40.00,7,2,11,0.00
2013-7-6,89.0,79.5,72.0,74.0,70.8,66.0,95,77,50,0.00,40.00,7,2,10,0.00
2013-7-7,87.0,78.8,70.0,74.0,70.6,68.0,96,77,57,0.00,40.00,14,4,18,0.55
2013-7-8,90.0,75.0,70.0,74.0,69.0,-99.9,96,84,47,0.00,40.00,6,2,10,0.59
2013-7-9,87.0,76.7,72.0,76.0,72.3,70.0,95,87,68,0.00,40.00,6,2,9,0.00
2013-7-10,90.0,78.7,72.0,74.0,69.1,-99.9,94,76,55,0.00,40.00,12,4,16,0.00
2013-7-11,79.0,74.4,72.0,73.0,71.7,71.0,96,92,81,0.00,40.00,9,2,13,0.00
2013-7-12,75.0,69.4,66.0,71.0,68.0,65.0,97,93,81,0.00,40.00,6,3,10,0.00
2013-7-13,82.0,74.4,70.0,76.0,70.9,68.0,94,89,74,0.00,40.00,4,2,10,0.00
2013-7-14,89.0,78.8,71.0,76.0,69.3,-99.9,96,79,51,0.00,40.00,10,2,14,0.00
2013-7-15,91.0,79.6,72.0,74.0,71.6,66.0,96,79,45,0.00,40.00,3,1,6,0.00
2013-7-16,95.0,81.8,71.0,78.0,72.1,69.0,95,75,44,0.00,40.00,4,1,6,0.00
2013-7-17,94.0,84.1,77.0,77.0,74.2,70.0,93,74,48,0.00,40.00,3,1,5,0.00
2013-7-18,94.0,81.9,76.0,77.0,74.3,69.0,93,75,44,0.00,40.00,4,1,5,0.00
2013-7-19,92.0,83.5,76.0,76.0,73.0,71.0,90,72,53,0.00,40.00,9,5,15,0.00
2013-7-20,89.0,80.6,75.0,75.0,71.1,-99.9,88,75,59,0.00,40.00,9,5,15,0.00
2013-7-21,90.0,77.8,72.0,75.0,72.3,71.0,96,81,56,0.00,40.00,8,3,11,0.00
2013-7-22,87.0,77.8,72.0,75.0,72.4,71.0,96,84,62,0.00,40.00,6,2,10,0.00
2013-7-23,89.0,80.5,74.0,73.0,70.7,68.0,91,74,51,0.00,40.00,9,4,14,0.00
2013-7-24,90.0,79.9,71.0,73.0,70.0,68.0,93,74,52,0.00,40.00,6,3,10,0.00
2013-7-25,81.0,73.4,67.0,67.0,64.8,62.0,92,76,56,0.00,40.00,8,4,11,0.00
2013-7-26,85.0,73.5,64.0,67.0,62.9,57.0,93,72,43,0.00,40.00,4,1,5,0.00
2013-7-27,86.0,75.0,67.0,71.0,67.4,64.0,93,78,50,0.00,40.00,6,2,12,0.00
2013-7-28,87.0,77.0,69.0,71.0,68.6,66.0,95,77,50,0.00,40.00,5,-20,9,0.00
2013-7-29,87.0,75.8,68.0,70.0,65.0,57.0,95,72,42,0.00,40.00,4,2,8,0.00
2013-7-30,86.0,74.6,64.0,69.0,63.9,60.0,89,71,42,0.00,40.00,3,2,6,0.00
2013-7-31,83.0,74.7,71.0,71.0,69.6,67.0,95,85,63,0.00,40.00,9,1,12,0.00
2013-8-1,86.0,75.6,69.0,72.0,69.5,66.0,96,83,54,0.00,40.00,9,3,14,0.00
2013-8-2,87.0,76.6,67.0,69.0,66.0,63.0,93,72,46,0.00,40.00,4,-21,9,0.00
2013-8-3,86.0,77.6,70.0,74.0,70.2,67.0,93,79,59,0.00,40.00,13,2,11,0.00
2013-8-4,88.0,77.0,68.0,72.0,64.9,54.0,95,70,34,0.00,40.00,6,3,11,0.00
2013-8-5,83.0,70.7,67.0,66.0,62.0,56.0,90,66,42,0.00,40.00,4,1,7,0.00
2013-8-6,82.0,75.4,70.0,68.0,64.5,62.0,79,69,56,0.00,40.00,11,4,16,0.00
2013-8-7,86.0,77.0,70.0,71.0,67.3,65.0,90,74,50,0.00,40.00,9,2,13,0.00
2013-8-8,88.0,77.1,72.0,72.0,69.8,67.0,92,72,51,0.00,40.00,7,3,10,0.00
2013-8-9,92.0,82.5,75.0,74.0,72.0,69.0,91,72,50,0.00,40.00,12,5,18,0.00
2013-8-10,93.0,81.5,74.0,75.0,71.9,68.0,95,75,47,0.00,40.00,7,3,9,0.00
2013-8-11,89.0,78.5,72.0,78.0,73.0,71.0,95,84,58,0.00,40.00,5,2,6,0.00
2013-8-12,94.0,81.0,73.0,76.0,71.7,65.0,95,76,44,0.00,40.00,4,2,6,0.00
2013-8-13,88.0,76.7,71.0,76.0,69.8,-99.9,95,83,55,0.00,40.00,7,3,10,0.00
2013-8-14,77.0,67.7,62.0,73.0,58.0,-99.9,94,72,52,0.00,40.00,6,3,11,0.00
2013-8-15,79.0,63.5,61.0,61.0,47.6,-99.9,94,69,40,0.00,40.00,6,2,9,0.00
2013-8-16,78.0,65.8,60.0,62.0,55.6,-99.9,96,76,48,0.00,40.00,4,1,6,0.00
2013-8-17,75.0,67.9,63.0,67.0,63.3,59.0,95,86,74,0.00,40.00,5,2,10,0.00
2013-8-18,70.0,67.9,67.0,67.0,64.6,-99.9,96,91,85,0.00,40.00,5,2,8,0.00
2013-8-19,75.0,65.9,66.0,70.0,55.1,-99.9,96,90,80,0.00,40.00,4,1,5,0.00
2013-8-20,85.0,73.0,65.0,72.0,66.7,-99.9,97,85,61,0.00,40.00,3,1,4,0.00
2013-8-21,86.0,76.1,71.0,75.0,72.1,70.0,96,88,64,0.00,40.00,4,1,7,0.00
2013-8-22,90.0,78.8,70.0,71.0,68.1,62.0,96,73,42,0.00,40.00,9,3,17,0.00
2013-8-23,86.0,74.1,67.0,72.0,69.2,65.0,97,86,58,0.00,40.00,9,3,15,0.00
2013-8-24,85.0,72.0,63.0,65.0,61.9,58.0,94,73,42,0.00,40.00,6,3,11,0.00
2013-8-25,85.0,70.9,63.0,64.0,59.3,-99.9,96,71,37,0.00,40.00,4,2,8,0.00
2013-8-26,86.0,67.6,56.0,63.0,57.5,49.0,96,65,31,0.00,40.00,6,2,9,0.00
2013-8-27,90.0,71.4,62.0,70.0,62.3,57.0,92,74,42,0.00,40.00,6,2,8,0.00
2013-8-28,80.0,78.1,76.0,73.0,72.2,71.0,86,82,79,0.00,40.00,5,3,9,0.00
2013-8-29,87.0,78.3,73.0,73.0,70.8,69.0,90,78,56,0.00,40.00,7,3,11,0.00
2013-8-30,89.0,76.1,66.0,69.0,66.7,62.0,96,76,47,0.00,40.00,4,1,6,0.00
2013-8-31,89.0,77.7,69.0,71.0,67.9,65.0,91,73,52,0.00,40.00,7,4,12,0.00
2013-9-1,90.0,77.6,70.0,73.0,68.3,-99.9,96,77,51,0.00,40.00,9,3,15,0.00
2013-9-2,89.0,77.4,69.0,73.0,69.8,67.0,96,79,48,0.00,40.00,6,3,10,0.00
2013-9-3,91.0,79.0,71.0,72.0,70.1,67.0,95,75,45,0.00,40.00,6,2,7,0.00
2013-9-4,87.0,75.6,68.0,70.0,63.5,58.0,95,69,43,0.00,40.00,4,2,6,0.00
2013-9-5,88.0,74.3,63.0,65.0,60.2,51.0,96,67,29,0.00,40.00,9,3,10,0.00
2013-9-6,84.0,73.5,64.0,63.0,56.6,49.0,80,57,33,0.00,40.00,7,3,10,0.00
2013-9-7,82.0,68.0,60.0,63.0,59.4,55.0,94,69,41,0.00,40.00,7,-9,10,0.00
2013-9-8,89.0,73.8,64.0,67.0,60.3,-99.9,95,68,35,0.00,40.00,7,2,11,0.00
2013-9-9,90.0,77.5,69.0,71.0,68.6,66.0,93,75,49,0.00,40.00,4,1,7,0.41
2013-9-10,91.0,78.7,69.0,71.0,66.0,-99.9,94,70,44,0.00,40.00,6,3,10,0.00
2013-9-11,92.0,80.1,69.0,69.0,66.0,62.0,90,65,37,0.00,40.00,10,4,15,0.00
2013-9-12,92.0,79.4,70.0,69.0,66.9,65.0,87,67,42,0.00,40.00,7,3,10,0.00
2013-9-13,84.0,75.9,68.0,66.0,59.1,47.0,81,59,28,0.00,40.00,12,5,15,0.00
2013-9-14,74.0,63.7,58.0,53.0,48.4,43.0,75,57,34,0.00,40.00,7,4,12,0.00
2013-9-15,82.0,60.3,53.0,61.0,51.6,-99.9,95,69,35,0.00,40.00,8,2,12,0.00
2013-9-16,82.0,72.1,65.0,67.0,61.1,56.0,94,70,44,0.00,40.00,13,5,16,0.00
2013-9-17,78.0,66.7,58.0,57.0,53.1,49.0,85,64,39,0.00,40.00,8,4,13,0.00
2013-9-18,57.0,53.8,51.0,52.0,50.2,49.0,92,88,79,0.00,40.00,3,1,5,0.00
2013-9-19,75.0,62.8,56.0,60.0,54.9,52.0,91,73,44,0.00,40.00,4,1,7,0.00
2013-9-20,76.0,67.3,61.0,64.0,61.5,59.0,95,81,63,0.00,40.00,5,2,7,0.00
2013-9-21,75.0,68.4,64.0,69.0,65.5,62.0,96,91,75,0.00,40.00,6,2,11,0.00
2013-9-22,79.0,68.3,63.0,64.0,56.6,-99.9,95,71,41,0.00,40.00,9,4,13,0.00
2013-9-23,72.0,62.0,57.0,56.0,50.4,45.0,91,63,43,0.00,40.00,6,3,10,0.00
2013-9-24,79.0,65.1,56.0,58.0,53.5,48.0,92,69,40,0.00,40.00,3,1,6,0.00
2013-9-25,75.0,64.7,56.0,60.0,56.9,54.0,96,78,53,0.00,40.00,4,2,228,0.00
2013-9-26,81.0,68.9,61.0,58.0,54.3,46.0,91,63,29,0.00,40.00,9,3,13,0.00
2013-9-27,78.0,64.4,56.0,57.0,54.8,53.0,93,74,44,0.00,40.00,5,2,7,0.00
2013-9-28,72.0,61.2,56.0,56.0,54.0,51.0,95,74,48,0.00,40.00,6,3,9,0.00
2013-9-29,76.0,63.1,53.0,57.0,51.4,-99.9,96,71,34,0.00,40.00,7,2,10,0.00
2013-9-30,78.0,63.2,53.0,58.0,54.2,50.0,96,76,40,0.00,40.00,3,2,5,0.00
2013-10-1,69.0,64.8,58.0,61.0,60.3,56.0,93,86,76,0.00,40.00,2,2,3,0.00
2013-10-2,84.0,68.1,57.0,62.0,58.1,54.0,95,75,35,0.00,40.00,8,3,9,0.00
2013-10-3,88.0,68.1,59.0,65.0,59.3,54.0,95,71,32,0.00,40.00,4,2,8,0.00
2013-10-4,90.0,73.2,62.0,64.0,61.6,56.0,94,70,35,0.00,40.00,6,2,8,0.00
2013-10-5,93.0,74.3,62.0,68.0,64.0,60.0,95,73,38,0.00,40.00,6,2,7,0.00
2013-10-6,85.0,74.8,64.0,68.0,64.0,61.0,94,71,46,0.00,40.00,8,2,12,0.00
2013-10-7,74.0,69.9,64.0,71.0,66.0,55.0,96,88,68,0.00,40.00,10,4,16,0.00
2013-10-8,65.0,60.4,57.0,56.0,49.3,45.0,81,67,55,0.00,40.00,11,5,14,0.00
2013-10-9,61.0,57.9,54.0,54.0,51.9,49.0,95,81,70,0.00,40.00,14,7,21,0.00
2013-10-10,61.0,56.4,54.0,58.0,52.0,-99.9,94,89,86,0.00,40.00,15,10,19,0.00
2013-10-11,67.0,61.9,59.0,60.0,58.7,57.0,95,90,77,0.00,40.00,9,-25,13,0.00
2013-10-12,68.0,63.7,62.0,64.0,61.4,59.0,95,92,84,0.00,40.00,8,5,11,0.00
2013-10-13,67.0,62.5,61.0,63.0,59.1,-99.9,95,91,84,0.00,40.00,9,5,13,0.00
2013-10-14,66.0,60.0,58.0,60.0,53.6,-99.9,95,86,76,0.00,40.00,7,4,12,0.00
2013-10-15,74.0,62.1,53.0,60.0,55.2,50.0,96,79,56,0.00,40.00,6,3,11,0.00
2013-10-16,71.0,65.4,62.0,62.0,60.8,60.0,93,85,69,0.00,40.00,5,1,6,0.00
2013-10-17,73.0,64.2,62.0,64.0,56.1,-99.9,92,81,67,0.00,40.00,8,3,11,0.00
2013-10-18,74.0,61.9,53.0,63.0,49.8,42.0,94,67,38,0.00,40.00,11,3,14,0.00
2013-10-19,65.0,59.3,54.0,63.0,57.4,53.0,96,93,88,0.00,40.00,4,1,6,0.00
2013-10-20,66.0,54.1,46.0,57.0,39.4,-99.9,95,62,33,0.00,40.00,8,3,11,0.00
2013-10-21,70.0,52.4,41.0,53.0,44.2,34.0,98,79,29,0.00,40.00,6,2,8,0.00
2013-10-22,70.0,59.3,52.0,56.0,51.5,46.0,94,77,49,0.00,40.00,7,2,9,0.00
2013-10-23,62.0,55.4,48.0,56.0,44.6,31.0,97,69,40,0.00,40.00,15,5,20,0.00
2013-10-24,57.0,47.1,37.0,34.0,31.0,27.0,88,56,32,0.00,40.00,10,5,15,0.00
2013-10-25,56.0,45.5,38.0,35.0,29.8,21.0,79,57,27,0.00,40.00,11,4,14,0.00
2013-10-26,59.0,45.3,31.0,35.0,29.3,25.0,92,58,28,0.00,40.00,9,4,14,0.00
2013-10-27,67.0,52.5,42.0,43.0,36.1,-99.9,89,58,30,0.00,40.00,9,2,12,0.00
2013-10-28,70.0,51.8,42.0,51.0,41.7,-99.9,95,72,37,0.00,40.00,6,2,8,0.00
2013-10-29,74.0,65.0,62.0,57.0,54.0,51.0,73,68,56,0.00,40.00,1,0,2,0.00
2013-10-30,71.0,66.9,62.0,60.0,55.9,50.0,73,67,64,0.00,40.00,1,0,2,0.00
2013-10-31,67.0,67.0,67.0,57.0,57.0,57.0,73,73,73,0.00,40.00,0,0,1,0.00
2013-11-2,71.0,65.7,63.0,54.0,50.3,43.0,73,61,36,0.00,40.00,3,2,4,0.00
2013-11-3,68.0,51.5,46.0,39.0,31.7,-99.9,60,50,34,0.00,40.00,9,2,14,0.00
2013-12-14,-200.0,0.0,200.0,-99.9,-99.9,-99.9,0,0,100,0.00,40.00,4,4,6,0.00
2013-12-16,42.0,40.2,37.0,31.0,29.4,28.0,69,65,62,0.00,40.00,2,0,3,0.00
2013-12-17,62.0,40.7,32.0,40.0,30.4,25.0,75,68,37,0.00,40.00,12,2,20,0.00
2013-12-18,51.0,39.0,30.0,33.0,21.0,14.0,75,51,24,0.00,40.00,11,4,16,0.00
2013-12-19,67.0,42.4,29.0,26.0,19.8,14.0,63,42,20,0.00,40.00,4,2,10,0.00
2013-12-20,68.0,51.4,44.0,50.0,33.6,25.0,67,51,34,0.00,40.00,4,1,6,0.00
2013-12-21,61.0,54.7,55.0,48.0,40.6,-99.9,71,65,63,0.00,40.00,3,1,6,0.00
2013-12-22,76.0,73.2,70.0,62.0,61.2,60.0,73,67,63,0.00,40.00,8,4,11,0.00
2013-12-23,71.0,59.5,54.0,59.0,46.1,38.0,72,62,54,0.00,40.00,10,5,12,0.00
2013-12-24,54.0,43.0,32.0,39.0,22.4,8.0,65,44,31,0.00,40.00,15,8,22,0.00
2013-12-25,41.0,29.6,22.0,15.0,8.4,3.0,66,42,23,0.00,40.00,10,3,14,0.00
2013-12-26,58.0,31.9,21.0,24.0,17.0,12.0,70,56,23,0.00,40.00,6,2,10,0.00
2013-12-27,58.0,36.2,24.0,23.0,18.7,14.0,69,52,22,0.00,40.00,3,2,5,0.00
2013-12-28,60.0,39.1,26.0,38.0,22.8,-99.9,70,55,30,0.00,40.00,3,1,6,0.00
2013-12-29,58.0,51.5,46.0,49.0,41.9,38.0,75,70,60,0.00,40.00,12,3,18,0.00
2013-12-30,58.0,48.3,39.0,40.0,34.3,27.0,75,59,46,0.00,40.00,6,2,9,0.00
2013-12-31,56.0,44.1,33.0,31.0,24.4,17.0,74,49,22,0.00,40.00,11,4,17,0.00
2014-1-1,54.0,36.5,30.0,28.0,21.6,18.0,69,56,32,0.00,40.00,4,1,9,0.00
2014-1-2,53.0,41.6,31.0,39.0,31.1,23.0,74,67,49,0.00,40.00,8,1,12,0.00